Time;durP1;ratioP1;P1;durP2;ratioP2;P2;SDS_P1;SDS_P2;PMS_P1;PMS_P2;Temp;Humidity;BMP_temperature;BMP_pressure;BME280_temperature;BME280_humidity;BME280_pressure;Samples;Min_cycle;Max_cycle;Signal;HPM_P1;HPM_P2
2022/04/02 00:00:28;;;;;;;5.62;4.62;;;;;;;0.46;78.45;99117.74;3319787;84;21256;-70
2022/04/02 00:05:19;;;;;;;6.10;5.50;;;;;;;0.42;78.62;99115.92;3338535;84;20915;-69
2022/04/02 00:10:11;;;;;;;5.22;4.72;;;;;;;0.38;78.44;99113.25;3325407;84;21648;-70
2022/04/02 00:15:02;;;;;;;6.60;5.47;;;;;;;0.40;78.50;99112.03;3276074;84;21066;-68
2022/04/02 00:19:54;;;;;;;6.00;5.00;;;;;;;0.36;78.65;99108.51;3313788;84;22077;-69
2022/04/02 00:24:46;;;;;;;5.97;4.42;;;;;;;0.35;78.66;99105.48;3315039;84;21128;-69
2022/04/02 00:29:38;;;;;;;6.60;5.80;;;;;;;0.33;78.93;99102.01;3334194;84;20976;-69
2022/04/02 00:34:29;;;;;;;5.97;5.05;;;;;;;0.34;78.85;99099.92;3335268;84;21074;-69
2022/04/02 00:39:20;;;;;;;7.00;6.00;;;;;;;0.35;78.92;99104.20;3290050;84;21677;-69
2022/04/02 00:44:17;;;;;;;6.55;5.85;;;;;;;0.34;79.05;99099.92;3327192;84;21468;-69
2022/04/02 00:49:11;;;;;;;6.03;5.45;;;;;;;0.29;79.19;99095.07;3284780;84;21093;-69
2022/04/02 00:54:04;;;;;;;7.10;5.37;;;;;;;0.31;79.09;99100.23;3286498;84;21010;-69
2022/04/02 00:58:55;;;;;;;7.95;6.00;;;;;;;0.28;79.20;99096.30;3256203;86;21230;-69
2022/04/02 01:03:47;;;;;;;7.22;5.47;;;;;;;0.25;79.11;99099.63;3232096;87;20980;-69
2022/04/02 01:08:40;;;;;;;6.03;5.42;;;;;;;0.28;79.06;99107.38;3271652;86;20915;-69
2022/04/02 01:13:32;;;;;;;5.92;4.72;;;;;;;0.30;79.11;99100.63;3200301;87;21019;-69
2022/04/02 01:18:25;;;;;;;6.40;5.55;;;;;;;0.27;79.09;99102.21;3183579;87;21062;-69
2022/04/02 01:23:17;;;;;;;6.20;5.17;;;;;;;0.27;79.11;99104.77;3157880;87;21249;-69
2022/04/02 01:28:10;;;;;;;6.75;4.65;;;;;;;0.27;79.06;99107.33;3234594;86;21005;-69
2022/04/02 01:33:01;;;;;;;5.60;4.70;;;;;;;0.24;78.97;99099.58;3254470;87;22248;-69
2022/04/02 01:37:54;;;;;;;5.50;4.47;;;;;;;0.21;79.12;99105.44;3225363;86;20926;-69
2022/04/02 01:42:48;;;;;;;5.58;4.58;;;;;;;0.15;79.03;99100.14;3224208;87;21031;-69
2022/04/02 01:47:40;;;;;;;5.05;4.42;;;;;;;0.09;79.29;99100.82;3254838;87;21263;-69
2022/04/02 01:52:31;;;;;;;4.80;3.85;;;;;;;0.06;79.39;99102.41;3214591;86;21635;-69
2022/04/02 01:57:23;;;;;;;6.00;4.60;;;;;;;0.04;79.50;99104.05;3252567;86;21464;-69
2022/04/02 02:02:15;;;;;;;5.58;3.90;;;;;;;-0.01;79.41;99098.35;3257868;87;21532;-69
2022/04/02 02:07:07;;;;;;;5.37;4.10;;;;;;;-0.03;79.34;99099.99;3158740;88;21067;-68
2022/04/02 02:12:00;;;;;;;4.62;3.83;;;;;;;-0.07;79.27;99104.55;3247229;85;21086;-68
2022/04/02 02:17:05;;;;;;;4.10;3.55;;;;;;;-0.09;79.46;99108.75;3240025;86;20981;-68
2022/04/02 02:21:57;;;;;;;5.05;4.15;;;;;;;-0.08;79.23;99115.57;3183934;88;21061;-69
2022/04/02 02:26:49;;;;;;;5.58;4.20;;;;;;;-0.12;79.18;99112.46;3284291;85;20970;-69
2022/04/02 02:31:45;;;;;;;5.47;3.90;;;;;;;-0.12;79.08;99118.85;3247636;85;21547;-69
2022/04/02 02:36:36;;;;;;;4.65;3.85;;;;;;;-0.15;79.10;99105.11;3287929;85;21759;-69
2022/04/02 02:41:30;;;;;;;4.08;3.67;;;;;;;-0.25;79.39;99112.45;3246687;85;20981;-69
2022/04/02 02:46:24;;;;;;;4.62;3.87;;;;;;;-0.27;79.13;99113.20;3262980;85;21089;-69
2022/04/02 02:51:17;;;;;;;6.90;3.72;;;;;;;-0.27;79.22;99114.09;3228313;85;21030;-68
2022/04/02 02:56:10;;;;;;;3.95;3.50;;;;;;;-0.25;79.17;99119.23;3246313;85;21245;-68
2022/04/02 03:01:01;;;;;;;4.75;3.80;;;;;;;-0.28;79.21;99116.59;3271527;85;22738;-68
2022/04/02 03:05:54;;;;;;;4.10;3.50;;;;;;;-0.34;79.29;99124.02;3244838;85;21006;-68
2022/04/02 03:10:46;;;;;;;4.70;4.12;;;;;;;-0.32;79.21;99128.77;3246542;85;21054;-69
2022/04/02 03:15:39;;;;;;;4.10;3.30;;;;;;;-0.34;79.14;99135.13;3251703;86;21000;-69
2022/04/02 03:20:33;;;;;;;4.87;3.75;;;;;;;-0.36;79.15;99134.18;3250692;85;21472;-69
2022/04/02 03:25:26;;;;;;;5.87;3.65;;;;;;;-0.40;79.11;99133.20;3233556;86;21520;-69
2022/04/02 03:30:22;;;;;;;4.42;3.45;;;;;;;-0.41;79.13;99134.04;3256974;86;21497;-69
2022/04/02 03:35:15;;;;;;;3.55;3.25;;;;;;;-0.43;79.28;99131.84;3253447;86;21030;-69
2022/04/02 03:40:11;;;;;;;4.78;3.92;;;;;;;-0.41;79.22;99136.59;3234861;86;21165;-69
2022/04/02 05:10:54;;;;;;;4.92;4.33;;;;;;;-0.26;78.22;99169.87;3556463;78;948479;-80
2022/04/02 05:15:51;;;;;;;4.90;4.40;;;;;;;-0.19;78.19;99169.27;3556543;79;20934;-80
2022/04/02 05:20:44;;;;;;;6.33;4.33;;;;;;;-0.12;78.00;99175.05;3500968;80;20986;-80
2022/04/02 05:28:07;;;;;;;5.08;4.67;;;;;;;-0.01;77.70;99173.73;3511920;78;22861;-81
2022/04/02 05:46:49;;;;;;;4.85;4.45;;;;;;;0.93;75.60;99178.46;3545424;79;22807;-81
2022/04/02 05:51:41;;;;;;;5.00;3.90;;;;;;;0.80;75.83;99183.61;3515141;80;21077;-80
2022/04/02 05:56:34;;;;;;;4.37;3.98;;;;;;;0.75;75.78;99190.27;3440878;81;20979;-80
2022/04/02 06:01:25;;;;;;;5.87;3.98;;;;;;;0.64;75.64;99190.34;3411886;81;21036;-81
2022/04/02 06:06:17;;;;;;;4.17;3.60;;;;;;;0.58;75.80;99202.53;3466205;81;20936;-81
2022/04/02 06:11:08;;;;;;;6.17;4.83;;;;;;;0.62;75.96;99199.25;3421589;81;20928;-81
2022/04/02 06:15:59;;;;;;;4.30;3.90;;;;;;;0.66;75.78;99199.83;3499046;79;21654;-82
2022/04/02 06:20:51;;;;;;;5.75;3.95;;;;;;;0.67;75.18;99206.66;3509192;80;21542;-81
2022/04/02 06:25:43;;;;;;;4.33;3.77;;;;;;;0.68;75.52;99217.38;3470011;81;20940;-81
2022/04/02 06:30:34;;;;;;;4.17;3.77;;;;;;;0.72;75.20;99220.48;3458120;81;21016;-81
2022/04/02 06:35:27;;;;;;;3.45;3.15;;;;;;;0.63;75.17;99222.74;3448241;81;20918;-82
2022/04/02 06:40:18;;;;;;;5.10;4.00;;;;;;;0.69;75.09;99222.06;3456016;80;21453;-82
2022/04/02 06:45:11;;;;;;;4.70;4.17;;;;;;;0.76;74.96;99222.73;3461293;81;20954;-82
2022/04/02 06:50:06;;;;;;;4.95;3.80;;;;;;;0.80;74.53;99223.69;3465850;81;21060;-82
2022/04/02 06:54:57;;;;;;;5.60;3.30;;;;;;;0.83;74.20;99225.08;3447665;81;21426;-82
2022/04/02 06:59:49;;;;;;;5.60;4.45;;;;;;;0.90;74.33;99238.11;3501393;81;21014;-81
2022/04/02 07:04:41;;;;;;;4.92;4.45;;;;;;;1.04;74.20;99241.11;3473419;81;21261;-81
2022/04/02 07:09:32;;;;;;;5.30;4.40;;;;;;;1.18;73.80;99250.52;3482996;81;20961;-82
2022/04/02 07:14:24;;;;;;;5.50;4.28;;;;;;;1.17;73.71;99242.78;3504693;80;21003;-82
2022/04/02 07:19:22;;;;;;;5.97;4.87;;;;;;;1.19;73.60;99248.81;3456849;80;20969;-82
2022/04/02 07:24:18;;;;;;;8.15;4.80;;;;;;;1.28;73.59;99249.09;3452692;81;20959;-81
2022/04/02 12:05:49;;;;;;;10.65;7.72;;;;;;;4.88;67.39;99355.42;3418061;81;21003;-68
2022/04/02 12:10:47;;;;;;;9.03;7.83;;;;;;;5.07;67.08;99357.02;3396886;81;20889;-69
2022/04/02 12:15:38;;;;;;;11.35;9.33;;;;;;;5.28;67.02;99352.23;3344811;82;21568;-69
2022/04/02 12:20:36;;;;;;;17.65;12.47;;;;;;;5.52;66.49;99353.45;3342829;82;21482;-69
2022/04/02 12:25:28;;;;;;;10.48;9.23;;;;;;;5.79;66.14;99349.12;3474516;79;22087;-69
2022/04/02 12:30:23;;;;;;;9.93;8.58;;;;;;;6.11;65.75;99347.45;3455944;79;20938;-69
2022/04/02 12:35:24;;;;;;;11.25;9.70;;;;;;;6.28;65.41;99346.39;3468264;79;21568;-69
2022/04/02 12:40:22;;;;;;;10.90;9.28;;;;;;;6.39;65.10;99344.80;3437199;79;21005;-68
2022/04/02 12:45:25;;;;;;;12.82;9.90;;;;;;;6.39;65.10;99344.80;3440479;79;21415;-68
2022/04/02 12:50:16;;;;;;;11.48;10.35;;;;;;;6.31;65.12;99360.60;3508501;79;21469;-69
2022/04/02 13:07:25;;;;;;;11.12;9.85;;;;;;;7.46;63.95;99342.82;3530247;80;22026;-86
2022/04/02 13:12:21;;;;;;;12.23;9.73;;;;;;;7.35;63.85;99344.44;3467403;81;21423;-86
2022/04/02 13:17:18;;;;;;;10.75;8.95;;;;;;;7.29;63.49;99344.40;3444326;81;21424;-86
2022/04/02 13:22:14;;;;;;;14.13;10.82;;;;;;;7.22;63.65;99337.87;3470123;81;21472;-86
2022/04/02 13:27:32;;;;;;;11.97;9.23;;;;;;;7.19;64.10;99339.56;3392121;81;21476;-86
2022/04/02 13:32:40;;;;;;;12.13;9.93;;;;;;;7.09;64.09;99331.31;3442335;81;20967;-86
2022/04/02 13:37:52;;;;;;;10.43;9.35;;;;;;;7.00;64.29;99350.17;3426301;81;21535;-86
2022/04/02 13:42:49;;;;;;;9.65;8.45;;;;;;;6.93;64.04;99357.43;3458052;81;20991;-87
2022/04/02 13:47:41;;;;;;;11.10;9.13;;;;;;;6.85;64.20;99350.47;3447237;81;21014;-87
2022/04/02 13:52:37;;;;;;;15.32;12.00;;;;;;;6.75;63.96;99362.84;3440232;81;20971;-88
2022/04/02 13:57:34;;;;;;;14.23;9.95;;;;;;;6.58;64.53;99357.91;3440783;81;21421;-88
2022/04/02 14:02:32;;;;;;;13.43;10.50;;;;;;;6.45;64.91;99359.05;3404575;81;22106;-89
2022/04/02 14:07:29;;;;;;;12.70;11.25;;;;;;;6.34;64.93;99361.94;3415072;81;20986;-88
2022/04/02 14:12:26;;;;;;;14.47;11.35;;;;;;;6.24;65.27;99369.12;3440643;81;21037;-89
2022/04/02 14:17:23;;;;;;;12.67;11.20;;;;;;;6.15;65.40;99370.29;3429264;81;20944;-88
2022/04/02 14:22:19;;;;;;;13.43;11.77;;;;;;;6.08;65.73;99374.09;3485335;81;21115;-88
2022/04/02 14:27:42;;;;;;;15.40;11.93;;;;;;;6.02;65.93;99379.16;3440454;82;21115;-88
2022/04/02 14:33:07;;;;;;;14.87;12.98;;;;;;;5.93;66.36;99377.70;3452988;81;21057;-88
2022/04/02 14:38:13;;;;;;;15.85;12.65;;;;;;;5.93;66.36;99377.70;3435491;81;20947;-88
2022/04/02 14:43:31;;;;;;;19.20;13.18;;;;;;;5.91;66.62;99384.13;3421591;81;20982;-88
2022/04/02 14:48:57;;;;;;;16.60;12.23;;;;;;;5.88;66.89;99381.53;3412301;82;20982;-89
2022/04/02 14:54:25;;;;;;;15.40;11.55;;;;;;;5.87;67.01;99386.66;3472198;81;21040;-88
2022/04/02 14:59:49;;;;;;;16.82;12.90;;;;;;;5.82;67.18;99389.59;3443244;82;20986;-88
2022/04/02 15:05:22;;;;;;;14.05;10.98;;;;;;;5.81;67.25;99389.13;3413806;82;21014;-84
2022/04/02 15:10:36;;;;;;;14.45;11.12;;;;;;;5.75;67.32;99392.92;3438314;81;20978;-84
2022/04/02 15:15:41;;;;;;;17.07;12.88;;;;;;;5.67;67.47;99398.83;3461026;81;20963;-84
2022/04/02 15:20:33;;;;;;;17.27;13.15;;;;;;;5.56;67.91;99396.48;3405965;81;21499;-84
2022/04/02 15:25:26;;;;;;;17.48;12.45;;;;;;;5.51;67.90;99404.59;3394993;82;21583;-84
2022/04/02 15:30:25;;;;;;;17.10;11.97;;;;;;;5.48;67.70;99409.69;3402960;81;21045;-86
2022/04/02 15:35:22;;;;;;;12.35;9.85;;;;;;;5.42;67.59;99407.88;3435026;81;20987;-86
2022/04/02 15:40:21;;;;;;;13.60;8.60;;;;;;;5.33;67.00;99412.45;3389560;81;20976;-85
2022/04/02 15:45:25;;;;;;;10.78;9.08;;;;;;;5.11;66.28;99419.34;3417081;82;21241;-85
2022/04/02 15:50:23;;;;;;;13.32;8.83;;;;;;;5.01;66.70;99422.59;3449289;81;21296;-84
2022/04/02 15:55:19;;;;;;;12.78;8.65;;;;;;;4.88;66.42;99427.53;3455006;81;20986;-83
2022/04/02 16:00:15;;;;;;;20.75;15.25;;;;;;;4.71;66.97;99432.77;3415578;81;20963;-84
2022/04/02 16:05:09;;;;;;;18.07;11.13;;;;;;;4.53;67.13;99440.55;3451366;81;21452;-84
2022/04/02 16:10:11;;;;;;;13.60;10.40;;;;;;;4.38;67.36;99444.97;3391105;81;22805;-84
2022/04/02 16:15:28;;;;;;;17.35;11.63;;;;;;;4.25;67.67;99452.38;3393912;82;21875;-84
2022/04/02 16:20:24;;;;;;;14.85;11.50;;;;;;;4.12;67.60;99456.39;3466201;81;22170;-84
2022/04/02 16:25:16;;;;;;;18.77;11.07;;;;;;;4.02;67.66;99463.01;3454719;81;20970;-84
2022/04/02 16:30:10;;;;;;;14.07;9.73;;;;;;;3.94;68.11;99467.13;3466512;81;21057;-84
2022/04/02 16:35:11;;;;;;;18.95;12.75;;;;;;;3.80;68.61;99477.93;3416865;82;22767;-84
2022/04/02 16:40:15;;;;;;;25.45;14.45;;;;;;;3.61;69.05;99493.73;3437461;82;20983;-84
2022/04/02 16:45:11;;;;;;;21.55;11.03;;;;;;;3.44;68.58;99489.03;3439989;82;20969;-84
2022/04/02 16:50:10;;;;;;;15.55;10.00;;;;;;;3.32;68.81;99495.12;3395276;82;21025;-84
2022/04/02 16:55:06;;;;;;;24.15;12.30;;;;;;;3.24;68.30;99500.50;3373045;81;20988;-84
2022/04/02 17:00:09;;;;;;;18.85;10.55;;;;;;;3.18;68.46;99509.30;3426805;81;21041;-84
2022/04/02 17:05:05;;;;;;;16.02;8.83;;;;;;;3.09;68.42;99520.19;3437584;81;20998;-84
2022/04/02 17:09:56;;;;;;;12.28;7.45;;;;;;;2.94;68.25;99524.49;3413583;82;20937;-84
2022/04/02 17:14:48;;;;;;;11.75;7.67;;;;;;;2.83;68.99;99534.88;3393361;82;20896;-84
2022/04/02 17:19:39;;;;;;;13.45;8.15;;;;;;;2.75;68.87;99533.77;3390072;83;21046;-83
2022/04/02 17:24:31;;;;;;;14.95;9.05;;;;;;;2.69;69.15;99540.02;3392894;81;21198;-83
2022/04/02 17:29:24;;;;;;;11.40;7.60;;;;;;;2.62;69.01;99542.38;3364234;83;20983;-83
2022/04/02 17:34:23;;;;;;;13.03;8.70;;;;;;;2.54;69.64;99556.70;3374874;82;21459;-83
2022/04/02 17:39:14;;;;;;;14.45;9.73;;;;;;;2.44;69.92;99570.92;3377724;83;21011;-83
2022/04/02 17:44:26;;;;;;;19.30;12.78;;;;;;;2.38;70.00;99572.41;3430807;82;21464;-83
2022/04/02 17:49:18;;;;;;;20.92;13.05;;;;;;;2.35;70.40;99580.90;3380926;83;21162;-83
2022/04/02 17:54:13;;;;;;;22.77;14.15;;;;;;;2.24;70.41;99588.25;3385106;83;20982;-83
2022/04/02 17:59:09;;;;;;;22.73;15.00;;;;;;;2.09;70.63;99595.05;3402422;84;21585;-83
2022/04/02 18:04:14;;;;;;;31.10;21.48;;;;;;;2.02;71.08;99599.89;3403652;81;21266;-83
2022/04/02 18:09:06;;;;;;;31.52;19.42;;;;;;;1.98;71.46;99601.91;3459799;80;20967;-83
2022/04/02 18:13:59;;;;;;;35.23;20.32;;;;;;;1.87;71.33;99605.39;3407967;81;21625;-83
2022/04/02 18:18:53;;;;;;;38.28;21.23;;;;;;;1.75;71.51;99609.67;3441283;81;20982;-87
2022/04/02 18:23:47;;;;;;;39.30;21.87;;;;;;;1.71;71.91;99618.95;3426363;82;21477;-84
2022/04/02 18:28:38;;;;;;;32.58;21.17;;;;;;;1.71;72.14;99620.64;3418151;82;21128;-84
2022/04/02 18:33:30;;;;;;;36.40;20.62;;;;;;;1.66;72.19;99624.34;3380015;82;20936;-84
2022/04/02 18:38:21;;;;;;;47.17;23.45;;;;;;;1.61;71.94;99628.43;3423443;82;21706;-84
2022/04/02 18:43:15;;;;;;;33.63;17.60;;;;;;;1.61;71.37;99633.56;3405932;83;20987;-85
2022/04/02 18:48:07;;;;;;;35.20;17.45;;;;;;;1.66;71.71;99635.87;3403580;81;21417;-84
2022/04/02 18:52:58;;;;;;;21.82;12.37;;;;;;;1.63;70.86;99647.71;3403128;82;21038;-77
2022/04/02 18:57:50;;;;;;;14.93;11.12;;;;;;;1.62;71.09;99652.36;3416884;82;21241;-77
2022/04/02 19:02:41;;;;;;;21.82;12.68;;;;;;;1.53;71.04;99655.04;3376358;83;21030;-77
2022/04/02 19:07:33;;;;;;;28.70;15.72;;;;;;;1.50;71.44;99660.08;3405415;83;21470;-77
2022/04/02 19:12:24;;;;;;;33.90;18.67;;;;;;;1.51;71.84;99665.64;3338902;83;21015;-77
2022/04/02 19:17:16;;;;;;;36.48;19.75;;;;;;;1.48;72.05;99670.64;3309507;83;21000;-77
2022/04/02 19:22:07;;;;;;;34.05;20.45;;;;;;;1.44;72.09;99673.92;3381189;83;20908;-77
2022/04/02 19:26:58;;;;;;;30.15;17.92;;;;;;;1.40;72.18;99681.04;3370019;83;21027;-77
2022/04/02 19:31:49;;;;;;;27.85;17.73;;;;;;;1.30;72.17;99686.63;3364945;83;21023;-78
2022/04/02 19:36:41;;;;;;;21.70;13.68;;;;;;;1.20;72.26;99687.98;3348233;83;22094;-77
2022/04/02 19:41:32;;;;;;;19.82;13.18;;;;;;;1.14;72.53;99696.30;3391596;83;21433;-77
2022/04/02 19:46:28;;;;;;;19.30;13.03;;;;;;;1.14;72.58;99698.87;3325715;83;20999;-76
2022/04/02 19:51:21;;;;;;;17.07;12.78;;;;;;;1.08;72.51;99703.73;3389722;83;21998;-77
2022/04/02 19:56:14;;;;;;;19.73;12.15;;;;;;;1.02;72.56;99706.06;3405237;83;20991;-77
2022/04/02 20:01:07;;;;;;;20.55;13.08;;;;;;;0.91;72.54;99714.61;3321897;83;20998;-77
2022/04/02 20:06:00;;;;;;;16.93;11.12;;;;;;;0.89;72.69;99717.90;3428961;80;21031;-77
2022/04/02 20:10:51;;;;;;;18.05;12.35;;;;;;;0.86;72.58;99717.39;3451511;82;21133;-77
2022/04/02 20:15:44;;;;;;;20.00;13.60;;;;;;;0.80;72.51;99730.33;3498744;81;21096;-77
2022/04/02 20:20:36;;;;;;;31.73;17.67;;;;;;;0.73;71.95;99730.48;3431755;82;20967;-77
2022/04/02 20:25:27;;;;;;;30.15;16.70;;;;;;;0.68;71.37;99736.71;3422943;82;20976;-77
2022/04/02 20:30:18;;;;;;;26.23;13.43;;;;;;;0.68;69.91;99730.31;3420174;82;20970;-77
2022/04/02 20:35:12;;;;;;;29.02;15.10;;;;;;;0.65;68.82;99736.58;3441122;82;20981;-77
2022/04/02 20:40:03;;;;;;;26.68;11.78;;;;;;;0.65;68.50;99740.41;3422916;81;21467;-77
2022/04/02 20:44:55;;;;;;;19.92;11.22;;;;;;;0.66;68.28;99747.30;3461382;80;21133;-77
2022/04/02 20:49:47;;;;;;;19.17;9.85;;;;;;;0.68;67.60;99750.78;3442695;81;20903;-77
2022/04/02 20:54:39;;;;;;;18.70;10.05;;;;;;;0.68;66.98;99749.50;3395841;82;21712;-77
2022/04/02 20:59:30;;;;;;;18.82;9.98;;;;;;;0.69;67.05;99747.81;3420767;82;20916;-77
2022/04/02 21:04:21;;;;;;;18.90;9.95;;;;;;;0.66;67.01;99753.69;3444409;81;21479;-76
2022/04/02 21:09:13;;;;;;;17.55;9.13;;;;;;;0.67;66.92;99760.53;3400705;82;20971;-76
2022/04/02 21:14:05;;;;;;;20.08;10.53;;;;;;;0.67;67.05;99760.53;3407425;81;21069;-76
2022/04/02 21:18:58;;;;;;;14.73;8.48;;;;;;;0.64;66.95;99764.23;3383716;82;21382;-76
2022/04/02 21:23:49;;;;;;;15.15;9.20;;;;;;;0.62;66.93;99768.42;3426077;82;20940;-76
2022/04/02 21:28:40;;;;;;;14.45;8.18;;;;;;;0.57;66.67;99771.19;3384837;82;21006;-76
2022/04/02 21:33:31;;;;;;;24.85;10.25;;;;;;;0.55;66.74;99786.88;3453912;80;20975;-76
2022/04/02 21:38:22;;;;;;;15.53;8.50;;;;;;;0.54;66.90;99787.71;3417675;82;20939;-76
2022/04/02 21:43:13;;;;;;;9.33;6.65;;;;;;;0.50;66.97;99793.48;3425217;81;21025;-76
2022/04/02 21:48:05;;;;;;;15.95;8.20;;;;;;;0.44;66.86;99790.27;3381822;82;22320;-76
2022/04/02 21:52:56;;;;;;;13.72;8.60;;;;;;;0.38;66.75;99797.27;3427748;82;21369;-76
2022/04/02 21:57:47;;;;;;;16.00;9.35;;;;;;;0.35;66.96;99800.10;3379362;82;20975;-76
2022/04/02 22:02:38;;;;;;;14.15;9.20;;;;;;;0.27;66.90;99803.62;3358516;82;21725;-76
2022/04/02 22:07:29;;;;;;;13.85;8.48;;;;;;;0.20;67.16;99796.48;3399775;83;20927;-76
2022/04/02 22:12:21;;;;;;;17.25;8.68;;;;;;;0.14;66.95;99800.04;3378304;83;21630;-76
2022/04/02 22:17:12;;;;;;;12.50;7.60;;;;;;;0.09;67.01;99805.34;3436787;80;20983;-76
2022/04/02 22:22:04;;;;;;;12.88;7.33;;;;;;;0.07;66.99;99808.24;3460013;80;20958;-75
2022/04/02 22:26:55;;;;;;;17.05;7.87;;;;;;;0.02;67.01;99807.16;3477646;81;21448;-76
2022/04/02 22:31:48;;;;;;;11.25;6.60;;;;;;;-0.03;67.19;99812.95;3457856;80;20911;-76
2022/04/02 22:36:43;;;;;;;11.12;6.35;;;;;;;-0.07;67.03;99812.35;3490842;81;21002;-76
2022/04/02 22:41:35;;;;;;;9.10;5.45;;;;;;;-0.09;66.93;99820.73;3463719;80;21563;-76
2022/04/02 22:46:27;;;;;;;11.70;6.58;;;;;;;-0.13;66.92;99827.38;3494048;81;21005;-76
2022/04/02 22:51:18;;;;;;;7.15;5.55;;;;;;;-0.15;66.80;99829.41;3505657;80;20980;-76
2022/04/02 22:56:09;;;;;;;10.88;6.05;;;;;;;-0.20;66.85;99839.03;3490660;80;21029;-76
2022/04/02 23:01:01;;;;;;;9.48;5.50;;;;;;;-0.22;66.92;99834.64;3468460;80;20954;-76
2022/04/02 23:05:52;;;;;;;10.23;5.85;;;;;;;-0.25;66.77;99840.87;3426500;80;22056;-76
2022/04/02 23:10:44;;;;;;;8.93;5.10;;;;;;;-0.26;66.79;99848.08;3469945;80;20896;-76
2022/04/02 23:15:34;;;;;;;9.08;5.17;;;;;;;-0.30;66.81;99848.75;3469823;80;20923;-76
2022/04/02 23:20:25;;;;;;;11.03;5.15;;;;;;;-0.32;66.66;99844.84;3484635;80;20986;-76
2022/04/02 23:25:16;;;;;;;9.70;4.75;;;;;;;-0.35;66.68;99850.22;3451635;80;21453;-76
2022/04/02 23:30:09;;;;;;;11.18;4.58;;;;;;;-0.37;66.49;99855.66;3493215;80;21049;-76
2022/04/02 23:35:01;;;;;;;8.88;4.70;;;;;;;-0.40;66.49;99858.52;3500252;80;21441;-76
2022/04/02 23:39:52;;;;;;;11.20;5.10;;;;;;;-0.43;66.41;99860.95;3451598;80;20954;-76
2022/04/02 23:44:43;;;;;;;8.33;4.58;;;;;;;-0.44;66.40;99858.31;3442658;80;20890;-76
2022/04/02 23:49:37;;;;;;;7.05;4.65;;;;;;;-0.48;66.39;99862.41;3447590;80;21445;-76
2022/04/02 23:54:28;;;;;;;7.67;4.33;;;;;;;-0.47;66.33;99855.20;3453677;80;21140;-76
2022/04/02 23:59:18;;;;;;;10.13;4.47;;;;;;;-0.51;66.30;99862.25;3445356;80;20991;-76
